Time;durP1;ratioP1;P1;durP2;ratioP2;P2;SDS_P1;SDS_P2;PMS_P1;PMS_P2;Temp;Humidity;BMP_temperature;BMP_pressure;BME280_temperature;BME280_humidity;BME280_pressure;Samples;Min_cycle;Max_cycle;Signal;HPM_P1;HPM_P2
2023/10/28 00:00:31;;;;;;;14.93;6.87;;;;;;;-144.30;84.43;85535.59;5031155;28;20236;-81
2023/10/28 00:02:58;;;;;;;11.70;7.50;;;;;;;-144.30;84.54;85513.72;5030762;28;20197;-80
2023/10/28 00:05:25;;;;;;;12.83;8.10;;;;;;;-144.30;84.53;85499.81;5030249;28;20202;-81
2023/10/28 00:07:53;;;;;;;15.13;7.33;;;;;;;-144.30;84.58;85414.31;5030652;28;20201;-81
2023/10/28 00:10:21;;;;;;;15.33;7.83;;;;;;;-144.30;84.36;85525.66;5030326;28;20228;-81
2023/10/28 00:12:49;;;;;;;14.70;8.10;;;;;;;-144.30;84.32;85511.75;5031436;28;20298;-82
2023/10/28 00:15:18;;;;;;;12.30;7.73;;;;;;;-144.30;84.32;85483.91;5030690;28;20612;-82
2023/10/28 00:17:47;;;;;;;11.37;7.17;;;;;;;-144.30;85.18;85897.44;5031174;28;20205;-82
2023/10/28 00:20:17;;;;;;;18.33;7.80;;;;;;;-144.30;85.83;85535.59;5031438;28;20227;-82
2023/10/28 00:22:44;;;;;;;17.20;7.83;;;;;;;-144.30;85.48;85541.56;5031324;28;20280;-82
2023/10/28 00:25:13;;;;;;;13.83;7.50;;;;;;;-144.30;85.71;85527.63;5031573;28;20212;-81
2023/10/28 00:27:40;;;;;;;13.70;7.90;;;;;;;-144.30;85.84;85593.25;5030659;28;20221;-81
2023/10/28 00:30:09;;;;;;;13.13;7.60;;;;;;;-144.30;86.26;85412.34;5030786;28;20199;-79
2023/10/28 00:32:36;;;;;;;11.13;8.07;;;;;;;-144.30;86.60;85547.53;5030409;28;20193;-79
2023/10/28 00:35:04;;;;;;;13.63;7.77;;;;;;;-144.30;86.22;85555.47;5030332;28;20217;-79
2023/10/28 00:37:31;;;;;;;16.07;8.23;;;;;;;-144.30;86.13;85543.53;5030672;28;20651;-80
2023/10/28 00:39:58;;;;;;;14.97;8.97;;;;;;;-144.30;86.14;85505.78;5030714;28;20225;-78
2023/10/28 00:42:27;;;;;;;15.70;7.77;;;;;;;-144.30;86.50;85545.53;5030809;28;20224;-79
2023/10/28 00:44:55;;;;;;;13.90;7.73;;;;;;;-144.30;86.27;85503.78;5030334;28;20203;-79
2023/10/28 00:47:23;;;;;;;15.07;7.33;;;;;;;-144.30;85.80;85563.41;5030488;28;20197;-80
2023/10/28 00:49:51;;;;;;;13.77;7.97;;;;;;;-144.30;86.73;85523.66;5030443;28;20223;-81
2023/10/28 00:52:19;;;;;;;16.13;8.10;;;;;;;-144.30;87.19;85551.50;5030313;28;20696;-80
2023/10/28 00:54:48;;;;;;;18.13;8.07;;;;;;;-144.30;87.47;85396.44;5030785;28;20295;-80
2023/10/28 00:57:16;;;;;;;11.90;7.53;;;;;;;-144.30;87.48;85523.66;5030971;28;20205;-80
2023/10/28 00:59:45;;;;;;;14.37;7.30;;;;;;;-144.30;87.42;85491.84;5030523;28;20197;-81
2023/10/28 01:02:12;;;;;;;15.60;8.27;;;;;;;-144.30;86.68;85553.47;5030450;28;20642;-80
2023/10/28 01:04:40;;;;;;;17.30;8.83;;;;;;;-144.30;86.78;85519.69;5030577;28;20569;-79
2023/10/28 01:07:07;;;;;;;14.47;8.33;;;;;;;-144.30;87.21;85553.47;5029776;28;20578;-80
2023/10/28 01:09:45;;;;;;;13.67;8.27;;;;;;;-144.30;87.07;85571.38;5029803;28;20209;-80
2023/10/28 01:12:13;;;;;;;16.13;9.20;;;;;;;-144.30;87.31;85543.53;5029591;28;20204;-80
2023/10/28 01:14:40;;;;;;;13.50;8.27;;;;;;;-144.30;87.38;85583.31;5029580;28;20201;-81
2023/10/28 01:17:13;;;;;;;13.37;8.73;;;;;;;-144.30;87.50;85372.56;5029958;28;20319;-80
2023/10/28 01:19:40;;;;;;;13.73;8.00;;;;;;;-144.30;87.46;85456.06;5029315;28;20243;-80
2023/10/28 01:22:08;;;;;;;16.83;8.77;;;;;;;-144.30;87.53;85549.50;5030708;28;20193;-80
2023/10/28 01:24:36;;;;;;;12.87;8.90;;;;;;;-144.30;87.35;85555.47;5034392;28;20201;-79
2023/10/28 01:27:03;;;;;;;13.73;8.40;;;;;;;-144.30;87.44;85460.03;5034215;28;20204;-80
2023/10/28 01:29:32;;;;;;;19.33;10.00;;;;;;;-144.30;87.84;85531.63;5034156;28;20197;-81
2023/10/28 01:31:59;;;;;;;16.57;8.93;;;;;;;-144.30;87.80;85575.34;5034113;28;20193;-80
2023/10/28 01:34:27;;;;;;;13.30;9.00;;;;;;;-144.30;88.35;85559.44;5033689;28;20649;-79
2023/10/28 01:36:56;;;;;;;13.93;7.97;;;;;;;-144.30;87.82;85603.19;5033255;28;20726;-80
2023/10/28 01:39:24;;;;;;;13.30;8.70;;;;;;;-144.30;88.22;85549.50;5033992;28;20197;-80
2023/10/28 01:41:53;;;;;;;17.37;9.20;;;;;;;-144.30;88.50;85531.63;5033512;28;20227;-80
2023/10/28 01:44:20;;;;;;;14.97;8.57;;;;;;;-144.30;88.69;85547.53;5033783;28;20639;-81
2023/10/28 01:46:47;;;;;;;17.20;9.17;;;;;;;-144.30;88.63;85559.44;5033372;28;20244;-80
2023/10/28 01:49:14;;;;;;;17.00;9.83;;;;;;;-144.30;89.22;85533.59;5033809;28;20200;-81
2023/10/28 01:51:41;;;;;;;16.13;8.80;;;;;;;-144.30;89.74;85603.19;5033416;28;20201;-81
2023/10/28 01:54:08;;;;;;;16.17;9.43;;;;;;;-144.30;89.93;85619.09;5033930;28;20288;-81
2023/10/28 01:56:38;;;;;;;14.77;8.67;;;;;;;-144.30;89.55;85581.31;5033635;28;20276;-80
2023/10/28 01:59:05;;;;;;;15.93;10.13;;;;;;;-144.30;89.66;85579.31;5033355;28;20205;-80
2023/10/28 02:01:34;;;;;;;11.30;8.77;;;;;;;-144.30;89.82;85579.31;5033146;28;20225;-81
2023/10/28 02:04:06;;;;;;;18.33;10.07;;;;;;;-144.30;89.22;85543.53;5032935;28;20203;-82
2023/10/28 02:06:33;;;;;;;20.43;9.17;;;;;;;-144.30;89.27;85555.47;5033116;28;20201;-80
2023/10/28 02:09:00;;;;;;;21.73;9.23;;;;;;;-144.30;89.76;85503.78;5032950;28;20232;-80
2023/10/28 02:11:27;;;;;;;16.80;9.13;;;;;;;-144.30;89.78;85519.69;5033524;28;20200;-80
2023/10/28 02:13:55;;;;;;;17.33;8.90;;;;;;;-144.30;89.64;85527.63;5032682;28;20205;-80
2023/10/28 02:16:23;;;;;;;18.30;9.70;;;;;;;-144.30;89.84;85583.31;5033346;28;20201;-79
2023/10/28 02:18:50;;;;;;;13.67;9.53;;;;;;;-144.30;90.09;85569.38;5032481;28;20243;-79
2023/10/28 02:21:20;;;;;;;15.43;8.70;;;;;;;-144.30;90.10;85589.28;5032916;28;20229;-79
2023/10/28 02:23:46;;;;;;;14.50;8.30;;;;;;;-144.30;90.27;85577.34;5033033;28;20205;-79
2023/10/28 02:26:13;;;;;;;13.67;8.73;;;;;;;-144.30;90.61;85545.53;5032942;28;20208;-79
2023/10/28 02:28:40;;;;;;;16.93;8.37;;;;;;;-144.30;90.83;85603.19;5032747;28;20194;-79
2023/10/28 02:31:11;;;;;;;15.17;8.27;;;;;;;-144.30;90.73;85597.22;5033010;28;20193;-80
2023/10/28 02:33:38;;;;;;;16.87;9.07;;;;;;;-144.30;90.48;85503.78;5031994;28;20587;-81
2023/10/28 02:36:05;;;;;;;18.10;9.33;;;;;;;-144.30;90.24;85593.25;5033021;28;20730;-81
2023/10/28 02:38:33;;;;;;;21.17;9.97;;;;;;;-144.30;90.58;85627.03;5032804;28;20560;-80
2023/10/28 02:40:59;;;;;;;17.70;9.63;;;;;;;-144.30;91.40;85615.13;5032581;28;20229;-79
2023/10/28 02:43:26;;;;;;;17.13;10.00;;;;;;;-144.30;91.74;85611.13;5032462;28;20198;-80
2023/10/28 02:45:53;;;;;;;22.47;8.80;;;;;;;-144.30;91.46;85615.13;5032707;28;20670;-80
2023/10/28 02:48:22;;;;;;;14.33;9.10;;;;;;;-144.30;91.31;85571.38;5032039;28;20201;-80
2023/10/28 02:50:48;;;;;;;16.13;9.50;;;;;;;-144.30;91.01;85599.22;5031943;28;20215;-80
2023/10/28 02:53:15;;;;;;;15.07;9.00;;;;;;;-144.30;90.75;85599.22;5031660;28;20205;-79
2023/10/28 02:55:42;;;;;;;22.27;10.30;;;;;;;-144.30;90.79;85615.13;5031411;28;20225;-79
2023/10/28 02:58:09;;;;;;;17.03;9.63;;;;;;;-144.30;91.46;85611.13;5031742;28;20350;-79
2023/10/28 03:00:36;;;;;;;22.37;10.77;;;;;;;-144.30;91.57;85619.09;5031611;28;20225;-80
2023/10/28 03:03:03;;;;;;;15.90;10.60;;;;;;;-144.30;91.61;85575.34;5031912;28;20193;-77
2023/10/28 03:05:32;;;;;;;20.00;11.57;;;;;;;-144.30;91.99;86438.28;5032485;28;20655;-80
2023/10/28 03:07:59;;;;;;;22.63;11.10;;;;;;;-144.30;91.97;85611.13;5031643;28;20462;-77
2023/10/28 03:10:26;;;;;;;15.50;10.47;;;;;;;-144.30;92.02;85541.56;5032116;28;20208;-87
2023/10/28 03:12:53;;;;;;;15.57;10.57;;;;;;;-144.30;91.96;85575.34;5035396;28;20203;-79
2023/10/28 03:15:20;;;;;;;16.77;10.70;;;;;;;-144.30;92.46;85633.00;5051571;28;20527;-78
2023/10/28 03:17:47;;;;;;;17.30;10.27;;;;;;;-144.30;93.00;86416.41;5047562;28;20196;-78
2023/10/28 03:20:19;;;;;;;23.97;11.37;;;;;;;-144.30;93.58;85561.44;5031039;28;20284;-77
2023/10/28 03:22:47;;;;;;;14.30;9.77;;;;;;;-144.30;93.90;85648.91;5028662;28;20190;-76
2023/10/28 03:25:14;;;;;;;20.73;10.53;;;;;;;-144.30;93.93;86213.56;5032441;28;20204;-89
2023/10/28 03:27:41;;;;;;;15.57;10.17;;;;;;;-144.30;94.50;85686.69;5033145;28;20192;-87
2023/10/28 03:30:09;;;;;;;17.33;10.33;;;;;;;-144.30;95.04;85197.66;5032492;28;20264;-88
2023/10/28 03:32:36;;;;;;;20.07;9.90;;;;;;;-144.30;95.45;85670.78;5029186;28;20216;-80
2023/10/28 03:35:03;;;;;;;24.13;10.17;;;;;;;-144.30;95.73;86134.03;5034107;28;20715;-78
2023/10/28 03:37:31;;;;;;;18.63;9.77;;;;;;;-144.30;95.25;85646.91;5050922;28;20200;-79
2023/10/28 03:40:00;;;;;;;17.53;9.93;;;;;;;-144.30;94.75;85652.88;5051414;28;20200;-78
2023/10/28 03:42:27;;;;;;;16.27;10.37;;;;;;;-144.30;94.31;85658.84;5039130;28;20232;-79
2023/10/28 03:44:54;;;;;;;18.03;9.47;;;;;;;-144.30;94.58;85650.91;5031026;28;20263;-80
2023/10/28 03:47:21;;;;;;;17.43;9.93;;;;;;;-144.30;94.43;85640.97;5031108;28;20205;-78
2023/10/28 03:49:48;;;;;;;14.27;9.60;;;;;;;-144.30;94.48;85676.75;5031026;28;20266;-83
2023/10/28 03:52:15;;;;;;;17.87;9.03;;;;;;;-144.30;94.02;85505.78;5031362;28;20216;-83
2023/10/28 03:54:42;;;;;;;19.23;9.57;;;;;;;-144.30;93.98;85670.78;5031161;28;20193;-83
2023/10/28 03:57:10;;;;;;;17.13;8.93;;;;;;;-144.30;94.28;85666.81;5031135;28;20224;-81
2023/10/28 03:59:38;;;;;;;22.17;9.70;;;;;;;-144.30;94.55;85684.69;5030890;28;20212;-80
2023/10/28 04:02:05;;;;;;;15.60;9.10;;;;;;;-144.30;94.48;85682.72;5030767;28;20232;-81
2023/10/28 04:04:32;;;;;;;14.57;8.80;;;;;;;-144.30;94.85;85636.97;5029860;28;20201;-80
2023/10/28 04:06:58;;;;;;;12.57;9.20;;;;;;;-144.30;94.56;85696.63;5041969;28;20209;-84
2023/10/28 04:09:25;;;;;;;13.63;8.93;;;;;;;-144.30;94.74;85525.66;5029463;28;20193;-78
2023/10/28 04:11:52;;;;;;;10.47;9.23;;;;;;;-144.30;94.65;85686.69;5029817;28;20201;-76
2023/10/28 04:14:20;;;;;;;14.70;9.27;;;;;;;-144.30;94.84;85724.47;5030272;28;20193;-77
2023/10/28 04:16:47;;;;;;;17.07;9.27;;;;;;;-144.30;94.77;85654.88;5029895;28;20193;-77
2023/10/28 04:19:14;;;;;;;15.63;8.87;;;;;;;-144.30;95.17;85722.47;5030723;28;20676;-77
2023/10/28 04:21:41;;;;;;;15.23;8.33;;;;;;;-144.30;95.01;85748.31;5030399;28;20227;-77
2023/10/28 04:24:09;;;;;;;12.37;8.33;;;;;;;-144.30;94.96;85694.63;5030736;28;20666;-77
2023/10/28 04:26:36;;;;;;;17.23;9.00;;;;;;;-144.30;95.00;85744.34;5030568;28;20201;-77
2023/10/28 04:29:06;;;;;;;8.87;7.80;;;;;;;-144.30;95.35;85477.94;5030143;28;20201;-77
2023/10/28 04:31:34;;;;;;;14.97;8.73;;;;;;;-144.30;94.60;85716.50;5030228;28;20201;-78
2023/10/28 04:34:03;;;;;;;14.63;8.30;;;;;;;-144.30;94.38;85700.59;5030414;28;20193;-78
2023/10/28 04:36:30;;;;;;;14.13;8.03;;;;;;;-144.30;94.45;85730.41;5030315;28;20664;-78
2023/10/28 04:38:57;;;;;;;15.80;8.03;;;;;;;-144.30;93.39;85708.56;5030229;28;20599;-77
2023/10/28 04:41:23;;;;;;;14.87;9.27;;;;;;;-144.30;94.09;85748.31;5030210;28;20255;-77
2023/10/28 04:43:50;;;;;;;13.50;8.23;;;;;;;-144.30;94.49;85724.47;5030443;28;20206;-77
2023/10/28 04:46:17;;;;;;;14.90;8.63;;;;;;;-144.30;94.36;85714.53;5030619;28;20215;-77
2023/10/28 04:48:46;;;;;;;16.07;8.63;;;;;;;-144.30;94.07;85730.41;5030742;28;20251;-78
2023/10/28 04:51:13;;;;;;;17.30;8.70;;;;;;;-144.30;94.02;85702.59;5030368;28;20678;-77
2023/10/28 04:53:40;;;;;;;17.63;8.87;;;;;;;-144.30;93.67;85738.38;5030132;28;20585;-78
2023/10/28 04:56:08;;;;;;;8.70;7.53;;;;;;;-144.30;93.60;85656.88;5030189;28;20586;-77
2023/10/28 04:58:35;;;;;;;14.43;8.53;;;;;;;-144.30;93.49;85702.59;5029407;28;20201;-77
2023/10/28 05:01:02;;;;;;;18.73;9.77;;;;;;;-144.30;92.91;85702.59;5029857;28;20259;-78
2023/10/28 05:03:29;;;;;;;12.73;8.97;;;;;;;-144.30;92.83;85692.66;5029918;28;20197;-76
2023/10/28 05:05:58;;;;;;;15.63;9.47;;;;;;;-144.30;92.81;85714.53;5029830;28;20205;-77
2023/10/28 05:08:25;;;;;;;20.13;8.80;;;;;;;-144.30;92.31;85724.47;5029842;28;20562;-77
2023/10/28 05:10:53;;;;;;;15.43;9.43;;;;;;;-144.30;92.23;85686.69;5029843;28;20255;-77
2023/10/28 05:13:20;;;;;;;13.03;9.07;;;;;;;-144.30;92.33;85684.69;5029778;28;20219;-77
2023/10/28 05:15:46;;;;;;;17.23;9.60;;;;;;;-144.30;92.62;85615.13;5029946;28;20204;-78
2023/10/28 05:18:14;;;;;;;11.13;8.27;;;;;;;-144.30;93.08;85714.53;5029895;28;20193;-78
2023/10/28 05:20:40;;;;;;;13.10;9.20;;;;;;;-144.30;92.16;85688.66;5029881;28;20740;-79
2023/10/28 05:23:09;;;;;;;16.97;9.53;;;;;;;-144.30;91.62;85601.19;5030194;28;20316;-81
2023/10/28 05:25:36;;;;;;;18.53;9.27;;;;;;;-144.30;90.57;85670.78;5029875;28;20259;-76
2023/10/28 05:28:03;;;;;;;20.10;9.60;;;;;;;-144.30;89.85;85581.31;5029914;28;20215;-78
2023/10/28 05:30:29;;;;;;;14.40;9.73;;;;;;;-144.30;89.69;85605.19;5029872;28;20561;-78
2023/10/28 05:32:56;;;;;;;19.80;9.87;;;;;;;-144.30;89.85;85617.09;5030170;28;20578;-78
2023/10/28 05:35:23;;;;;;;16.30;10.53;;;;;;;-144.30;89.32;85581.31;5029740;28;20233;-79
2023/10/28 05:37:50;;;;;;;21.17;9.03;;;;;;;-144.30;88.22;85601.19;5029962;28;20197;-79
2023/10/28 05:40:18;;;;;;;23.57;9.83;;;;;;;-144.30;86.66;85535.59;5029147;28;20189;-75
2023/10/28 05:42:45;;;;;;;17.37;8.80;;;;;;;-144.30;85.73;85464.03;5028838;28;20219;-74
2023/10/28 05:45:14;;;;;;;16.97;10.33;;;;;;;-144.30;83.48;85412.34;5029688;28;20271;-74
2023/10/28 05:47:40;;;;;;;17.15;9.93;;;;;;;-144.30;79.43;85287.09;5028754;28;20200;-74
2023/10/28 05:50:08;;;;;;;12.55;9.10;;;;;;;-144.30;75.44;85189.69;5028796;28;20205;-80
2023/10/28 05:52:34;;;;;;;12.07;8.48;;;;;;;-144.30;71.45;85108.19;5030059;28;20201;-82
2023/10/28 05:55:02;;;;;;;14.88;8.48;;;;;;;-144.30;68.50;84998.88;5029035;28;20658;-76
2023/10/28 05:57:31;;;;;;;17.83;9.95;;;;;;;-144.30;67.07;84889.53;5029851;28;20197;-74
2023/10/28 05:59:58;;;;;;;19.60;9.55;;;;;;;-144.30;65.00;84748.44;5029028;28;20577;-74
2023/10/28 06:02:25;;;;;;;29.83;9.10;;;;;;;-144.30;62.09;84680.84;5028241;28;20225;-74
2023/10/28 06:04:52;;;;;;;18.38;8.48;;;;;;;-144.30;59.43;84468.19;5028931;28;20193;-75
2023/10/28 06:07:19;;;;;;;13.20;8.68;;;;;;;-144.30;57.43;84422.47;5028762;28;20217;-74
2023/10/28 06:09:47;;;;;;;11.25;7.88;;;;;;;-144.30;55.90;84307.22;5031435;28;20232;-74
2023/10/28 06:12:14;;;;;;;22.48;9.82;;;;;;;-144.30;55.81;84422.47;5033403;28;20367;-76
2023/10/28 06:14:43;;;;;;;18.55;10.85;;;;;;;-144.30;56.91;84478.13;5033231;28;20197;-76
2023/10/28 06:17:11;;;;;;;16.40;10.90;;;;;;;-144.30;57.65;84575.50;5032802;28;20197;-75
2023/10/28 06:19:40;;;;;;;15.38;10.20;;;;;;;-144.30;58.90;84575.50;5032239;28;20201;-75
2023/10/28 06:22:08;;;;;;;20.95;10.35;;;;;;;-144.30;59.52;84557.63;5032902;28;20854;-74
2023/10/28 06:24:35;;;;;;;18.23;10.20;;;;;;;-144.30;60.60;84694.75;5032584;28;20201;-75
2023/10/28 06:27:02;;;;;;;21.00;10.02;;;;;;;-144.30;61.38;84682.84;5032512;28;20190;-77
2023/10/28 06:29:29;;;;;;;14.23;9.60;;;;;;;-144.30;61.67;84710.66;5031358;28;20186;-74
2023/10/28 06:31:58;;;;;;;18.50;9.68;;;;;;;-144.30;62.43;84732.53;5031906;28;20293;-74
2023/10/28 06:34:27;;;;;;;13.48;9.70;;;;;;;-144.30;62.29;84776.25;5032591;28;20216;-75
2023/10/28 06:36:54;;;;;;;18.92;9.82;;;;;;;-144.30;62.73;85442.16;5030937;28;20235;-75
2023/10/28 06:39:21;;;;;;;16.15;11.23;;;;;;;-144.30;63.19;84812.03;5049500;28;20207;-75
2023/10/28 06:41:48;;;;;;;21.67;11.93;;;;;;;-144.30;63.91;84851.78;5042796;28;20655;-78
2023/10/28 06:44:18;;;;;;;18.33;10.55;;;;;;;-144.30;64.87;84893.53;5028915;28;20704;-76
2023/10/28 06:46:45;;;;;;;24.63;12.52;;;;;;;-144.30;65.57;84887.56;5032477;28;20662;-77
2023/10/28 06:49:13;;;;;;;19.33;10.57;;;;;;;-144.30;66.25;84979.00;5033934;28;20271;-75
2023/10/28 06:51:40;;;;;;;21.52;12.35;;;;;;;-144.30;66.72;84971.03;5032641;28;20228;-76
2023/10/28 06:54:07;;;;;;;29.80;13.45;;;;;;;-144.30;67.02;84955.13;5033052;28;20211;-75
2023/10/28 06:56:34;;;;;;;32.65;14.70;;;;;;;-144.30;67.26;84998.88;5044304;28;20219;-75
2023/10/28 06:59:01;;;;;;;27.70;13.20;;;;;;;-144.30;67.37;84984.97;5051101;28;20200;-74
2023/10/28 07:01:28;;;;;;;22.67;13.13;;;;;;;-144.30;67.45;84982.97;5030956;28;20566;-74
2023/10/28 07:03:55;;;;;;;18.40;12.93;;;;;;;-144.30;67.32;85008.81;5031734;28;20259;-75
2023/10/28 07:06:24;;;;;;;27.92;13.77;;;;;;;-144.30;68.31;85054.53;5031476;28;20220;-74
2023/10/28 07:08:51;;;;;;;28.52;15.32;;;;;;;-144.30;68.90;85052.53;5029149;28;20197;-75
2023/10/28 07:11:17;;;;;;;25.33;13.73;;;;;;;-144.30;69.23;85022.72;5031571;28;20190;-74
2023/10/28 07:13:45;;;;;;;28.98;13.23;;;;;;;-144.30;69.26;85086.31;5030374;28;20197;-74
2023/10/28 07:16:12;;;;;;;30.83;16.33;;;;;;;-144.30;69.60;85026.69;5029903;28;20280;-75
2023/10/28 07:18:40;;;;;;;32.67;15.90;;;;;;;-144.30;69.65;85060.50;5031366;28;20198;-74
2023/10/28 07:21:07;;;;;;;25.33;14.23;;;;;;;-144.30;68.98;85006.81;5031478;28;20197;-75
2023/10/28 07:23:35;;;;;;;21.40;13.32;;;;;;;-144.30;68.33;84979.00;5031664;28;20328;-76
2023/10/28 07:26:02;;;;;;;25.85;14.90;;;;;;;-144.30;67.47;84963.09;5031899;28;20205;-74
2023/10/28 07:28:33;;;;;;;23.45;14.05;;;;;;;-144.30;67.42;84933.28;5031108;28;20201;-77
2023/10/28 07:31:01;;;;;;;23.67;11.95;;;;;;;-144.30;67.42;84959.13;5031632;28;20288;-80
2023/10/28 07:33:29;;;;;;;19.45;11.55;;;;;;;-144.30;67.09;84931.28;5031573;28;20189;-78
2023/10/28 07:35:56;;;;;;;20.90;12.60;;;;;;;-144.30;67.32;84990.91;5031452;28;20340;-77
2023/10/28 07:38:23;;;;;;;22.50;11.90;;;;;;;-144.30;67.20;84967.06;5031526;28;20673;-74
2023/10/28 07:40:52;;;;;;;16.92;11.27;;;;;;;-144.30;67.30;84967.06;5031378;28;20615;-76
2023/10/28 07:43:19;;;;;;;20.60;11.65;;;;;;;-144.30;67.34;84951.16;5031294;28;20225;-74
2023/10/28 07:45:47;;;;;;;19.60;11.60;;;;;;;-144.30;67.14;84905.44;5030927;28;20586;-77
2023/10/28 07:48:14;;;;;;;22.02;11.32;;;;;;;-144.30;67.58;84965.06;5030830;28;20600;-78
2023/10/28 07:50:42;;;;;;;26.70;11.98;;;;;;;-144.30;68.04;84927.31;5030728;28;20581;-75
2023/10/28 07:53:09;;;;;;;19.63;11.30;;;;;;;-144.30;68.31;84955.13;5030919;28;20276;-74
2023/10/28 07:55:36;;;;;;;22.83;12.57;;;;;;;-144.30;68.46;84808.06;5030653;28;20212;-74
2023/10/28 07:58:05;;;;;;;17.42;12.75;;;;;;;-144.30;68.25;84917.38;5031068;28;20204;-74
2023/10/28 08:00:32;;;;;;;25.55;12.73;;;;;;;-144.30;68.18;84996.88;5030989;28;20810;-75
2023/10/28 08:03:00;;;;;;;21.95;11.98;;;;;;;-144.30;68.11;84949.19;5030948;28;20579;-75
2023/10/28 08:05:28;;;;;;;20.63;11.40;;;;;;;-144.30;67.96;84935.25;5030786;28;20208;-74
2023/10/28 08:07:56;;;;;;;25.42;13.05;;;;;;;-144.30;67.80;84909.41;5030974;28;20204;-76
2023/10/28 08:10:23;;;;;;;22.90;12.10;;;;;;;-144.30;67.78;84937.25;5031278;28;20691;-74
2023/10/28 08:12:51;;;;;;;16.50;12.13;;;;;;;-144.30;67.60;84895.50;5030393;28;20328;-74
2023/10/28 08:15:22;;;;;;;28.63;12.45;;;;;;;-144.30;67.52;84875.63;5030487;28;20201;-73
2023/10/28 08:17:50;;;;;;;34.60;11.70;;;;;;;-144.30;67.31;84887.56;5030368;28;20227;-74
2023/10/28 08:20:17;;;;;;;22.13;11.68;;;;;;;-144.30;66.95;85340.78;5029448;28;20204;-74
2023/10/28 08:22:44;;;;;;;21.83;12.27;;;;;;;-144.30;66.73;85080.38;5029923;28;20232;-77
2023/10/28 08:25:15;;;;;;;19.13;11.30;;;;;;;-144.30;67.14;84823.94;5030848;28;20255;-74
2023/10/28 08:27:42;;;;;;;17.35;11.02;;;;;;;-144.30;66.56;84885.56;5030359;28;20193;-75
2023/10/28 08:30:10;;;;;;;19.48;11.27;;;;;;;-144.30;66.75;84816.00;5030503;28;20251;-76
2023/10/28 08:32:39;;;;;;;16.90;11.20;;;;;;;-144.30;66.39;84875.63;5029547;28;20616;-75
2023/10/28 08:35:06;;;;;;;20.17;12.40;;;;;;;-144.30;66.44;84863.72;5030900;28;20233;-85
2023/10/28 08:37:33;;;;;;;22.30;12.55;;;;;;;-144.30;66.58;85092.28;5031700;28;20196;-78
2023/10/28 08:40:01;;;;;;;21.58;10.98;;;;;;;-144.30;67.00;84825.94;5030761;28;20664;-76
2023/10/28 08:42:28;;;;;;;19.38;12.25;;;;;;;-144.30;66.90;84593.41;5030413;28;20701;-77
2023/10/28 08:44:58;;;;;;;17.00;11.20;;;;;;;-144.30;66.72;84853.78;5030371;28;20204;-78
2023/10/28 08:47:27;;;;;;;17.05;11.45;;;;;;;-144.30;66.12;84851.78;5029604;28;20205;-77
2023/10/28 08:49:58;;;;;;;21.52;11.50;;;;;;;-144.30;66.40;84835.88;5029710;28;20227;-77
2023/10/28 08:52:28;;;;;;;19.85;10.90;;;;;;;-144.30;65.81;84796.13;5030135;28;20197;-78
2023/10/28 08:55:00;;;;;;;30.38;12.82;;;;;;;-144.30;65.26;84794.13;5030261;28;20193;-75
2023/10/28 08:57:28;;;;;;;18.73;12.48;;;;;;;-144.30;65.35;84776.25;5029732;28;20585;-75
2023/10/28 08:59:56;;;;;;;32.58;13.40;;;;;;;-144.30;65.07;84766.31;5030060;28;20197;-75
2023/10/28 09:02:25;;;;;;;20.67;12.32;;;;;;;-144.30;65.04;84774.25;5029519;28;20323;-78
2023/10/28 09:04:52;;;;;;;20.30;11.70;;;;;;;-144.30;64.88;84684.81;5030362;28;20263;-77
2023/10/28 09:07:21;;;;;;;20.60;12.00;;;;;;;-144.30;64.47;84770.28;5030125;28;20205;-80
2023/10/28 09:09:58;;;;;;;21.20;11.32;;;;;;;-144.30;64.38;84766.31;5030077;28;20225;-77
2023/10/28 09:12:25;;;;;;;25.10;12.23;;;;;;;-144.30;64.05;84712.66;5030291;28;20275;-80
2023/10/28 09:14:52;;;;;;;20.60;11.93;;;;;;;-144.30;64.12;84742.47;5029834;28;20278;-78
2023/10/28 09:17:20;;;;;;;18.38;11.70;;;;;;;-144.30;64.15;84738.47;5030227;28;20197;-77
2023/10/28 09:19:47;;;;;;;22.98;11.32;;;;;;;-144.30;64.21;84708.66;5029984;28;20201;-78
2023/10/28 09:22:15;;;;;;;20.88;11.32;;;;;;;-144.30;63.99;84726.56;5029752;28;20198;-79
2023/10/28 09:24:46;;;;;;;31.17;12.40;;;;;;;-144.30;63.63;84647.06;5029476;28;20212;-79
2023/10/28 09:27:14;;;;;;;25.63;11.65;;;;;;;-144.30;63.07;84672.91;5029821;28;20197;-79
2023/10/28 09:29:42;;;;;;;35.13;12.52;;;;;;;-144.30;63.05;84684.81;5029909;28;20244;-79
2023/10/28 09:32:10;;;;;;;25.67;11.40;;;;;;;-144.30;63.33;84657.00;5029611;28;20200;-80
2023/10/28 09:34:38;;;;;;;16.63;10.38;;;;;;;-144.30;63.58;84655.00;5029566;28;20197;-77
2023/10/28 09:37:06;;;;;;;27.02;11.25;;;;;;;-144.30;63.31;84494.03;5030141;28;20193;-77
2023/10/28 09:39:35;;;;;;;21.35;11.23;;;;;;;-144.30;62.57;84517.88;5030162;28;20563;-80
2023/10/28 09:42:04;;;;;;;14.57;9.80;;;;;;;-144.30;62.16;84625.19;5029992;28;20194;-79
2023/10/28 09:44:34;;;;;;;21.58;11.05;;;;;;;-144.30;62.12;84593.41;5032524;28;20231;-79
2023/10/28 09:47:03;;;;;;;14.82;8.30;;;;;;;-144.30;61.32;84585.44;5033442;28;20675;-81
2023/10/28 09:49:31;;;;;;;14.52;7.78;;;;;;;-144.30;60.97;84579.50;5033505;28;20197;-83
2023/10/28 09:52:00;;;;;;;18.10;7.05;;;;;;;-144.30;60.70;84597.38;5033359;28;20201;-78
2023/10/28 09:54:33;;;;;;;22.13;8.45;;;;;;;-144.30;60.55;84486.06;5033356;28;20193;-81
2023/10/28 09:57:01;;;;;;;19.88;8.55;;;;;;;-144.30;60.34;84406.59;5033730;28;20232;-80
2023/10/28 09:59:33;;;;;;;17.13;8.30;;;;;;;-144.30;59.97;84480.13;5034036;28;20201;-82
2023/10/28 10:02:15;;;;;;;13.98;7.75;;;;;;;-144.30;61.30;84426.47;5033547;28;20197;-80
2023/10/28 10:04:49;;;;;;;14.73;8.63;;;;;;;-144.30;60.69;84476.13;5032430;28;20685;-77
2023/10/28 10:07:17;;;;;;;12.02;6.85;;;;;;;-144.30;59.66;85118.13;5032596;28;20293;-79
2023/10/28 10:09:44;;;;;;;21.85;7.60;;;;;;;-144.30;59.57;84434.41;5029906;28;20697;-76
2023/10/28 10:12:12;;;;;;;9.82;6.50;;;;;;;-144.30;59.12;84476.13;5030362;28;20301;-77
2023/10/28 10:14:46;;;;;;;17.33;6.47;;;;;;;-144.30;58.94;84434.41;5029924;28;20712;-76
2023/10/28 10:17:23;;;;;;;10.55;6.55;;;;;;;-144.30;58.96;84436.38;5038083;28;20287;-80
2023/10/28 10:19:50;;;;;;;14.98;6.85;;;;;;;-144.30;58.52;84323.13;5052335;28;20211;-79
2023/10/28 10:22:19;;;;;;;7.80;6.25;;;;;;;-144.30;58.44;84430.44;5047732;28;20297;-82
2023/10/28 10:24:50;;;;;;;14.05;6.65;;;;;;;-144.30;58.40;84414.53;5052268;28;20259;-78
2023/10/28 10:27:34;;;;;;;16.15;6.75;;;;;;;-144.30;58.17;84412.53;5041267;28;20213;-82
2023/10/28 10:30:06;;;;;;;14.40;5.88;;;;;;;-144.30;57.88;84716.63;5032409;28;20251;-79
2023/10/28 10:32:41;;;;;;;9.95;5.70;;;;;;;-144.30;57.63;84374.78;5032217;28;20194;-78
2023/10/28 10:35:13;;;;;;;8.20;5.63;;;;;;;-144.30;57.30;84412.53;5032256;28;20282;-74
2023/10/28 10:37:40;;;;;;;12.18;5.45;;;;;;;-144.30;56.95;84354.91;5032329;28;20203;-83
2023/10/28 10:40:13;;;;;;;24.25;15.52;;;;;;;-144.30;56.57;84386.72;5032402;28;20209;-81
2023/10/28 10:42:41;;;;;;;12.27;6.05;;;;;;;-144.30;56.52;84269.47;5031369;28;20195;-80
2023/10/28 10:45:10;;;;;;;12.25;6.63;;;;;;;-144.30;56.22;84295.28;5028972;28;20194;-81
2023/10/28 10:47:37;;;;;;;13.13;6.97;;;;;;;-144.30;56.24;84289.31;5030820;28;20588;-75
2023/10/28 10:50:08;;;;;;;16.20;8.23;;;;;;;-144.30;55.86;84295.28;5031663;28;20197;-77
2023/10/28 10:52:40;;;;;;;13.90;10.60;;;;;;;-144.30;55.25;84191.94;5032163;28;20680;-81
2023/10/28 10:55:08;;;;;;;14.00;9.13;;;;;;;-144.30;55.71;84229.72;5031164;28;20296;-74
2023/10/28 10:57:37;;;;;;;13.35;9.50;;;;;;;-144.30;55.24;84235.66;5032749;28;20649;-80
2023/10/28 11:00:13;;;;;;;13.00;8.52;;;;;;;-144.30;56.60;84297.28;5032399;28;20275;-81
2023/10/28 11:02:40;;;;;;;12.88;8.10;;;;;;;-144.30;56.05;84295.28;5032336;28;20220;-83
2023/10/28 11:05:08;;;;;;;10.85;7.47;;;;;;;-144.30;56.39;84323.13;5032561;28;20197;-83
2023/10/28 11:07:36;;;;;;;19.75;7.03;;;;;;;-144.30;55.48;84267.47;5032757;28;20558;-83
2023/10/28 11:10:04;;;;;;;21.88;10.60;;;;;;;-144.30;56.86;84279.38;5032428;28;20293;-82